首页
METAR-TAF:

METAR-TAF

机场 :

揭阳潮汕国际机场

汕头, 中华人民共和国

纬度: 23-24N, 经度: 116-41E, 海拔: 3米

当前天气观测

该预报发布于1小时和3分钟前的07:00 UTC
风速8节,风向南转西南,在东南西转西南之间变化
温度 35°C
湿度 50%
气压 1008 hPa
能见度10公里或以上
少量云层高于2600英尺, 塔状积云.
少量云层高于2600英尺

METAR: ZGOW 220700Z 20004MPS 140V240 9999 FEW026TCU FEW026 35/23 Q1008 NOSIG

时间: 16:03 (08:03 UTC)

预报

该预报发布于4小时和56分钟前的03:07 UTC
预报有效从22日的 06点(UTC)到 23日的 06点(UTC)
风速8节,风向
能見度: 6000
少量云层高于2600英尺
散云层高于4000英尺

TAF: ZGOW 220307Z 2206/2306 17004MPS 6000 FEW026 SCT040 TX37/2207Z TN26/2222Z

超过4000个机场的气象观测和天气预报(METAR&TAF报告)。

可查询的气象台以黄色和红色小点在地图上表示。

将鼠标移到小点上方,可查看气象台名称。

然后点击查看天气观测和预报。

如需切换地图:点击带黑十字的绿色按钮放大地图;点击带横线的绿色按钮缩小地图;或者点击绿色箭头查看邻近地区的地图。


METAR-TAF: